Airfield :
LOGIN :

Register | Disclaimer

   EN    FR    IT 

 










Legend :    VFR   Marginal VFR   IFR   Intensive IFR   Very Intensive IFR
Visi :
Ceiling :
>= 8 km
>= 3000ft
5 to 8 km
1000 to 3000 ft
1500m to 5 km
500 to 1000 ft
800 to 1500m
200 to 500 ft
< 800m
< 200 ft
Symbols :   Thunderstorms  Fog  Heavy snow  Heavy precipitations  Wind > 20 kt
SIGMETs :     Misc.  Thunderstorms  Icing  Turbulence  Mountain Waves  Volcanic Ashes







- Airport Elevation : 628 ft
- IATA code : CMR
- Download approach charts


LFGA - Colmar-Houssen

CURRENT METAR :
  • 190230Z AUTO VRB03KT 9999 -RA BKN040 BKN048 BKN058 04/02 Q1019

EXPIRED METARs :
  • 190200Z AUTO 17004KT 9999 -RA FEW038 BKN045 BKN054 05/02 Q1019
  • 190130Z AUTO VRB03KT 9999 -RA BKN046 BKN058 OVC068 05/02 Q1019
  • 190100Z AUTO 18005KT 150V210 9999 -RA FEW036 BKN042 BKN048 05/01 Q1020
  • 190030Z AUTO 17004KT 110V220 9999 FEW038 SCT048 BKN058 05/01 Q1020
  • 190000Z AUTO 18005KT 150V210 9999 FEW054 BKN068 OVC090 05/01 Q1020

TAF N/A
No reported NOTAMs for that airfield.



MET'MAP, your aeronautical weather chart ! - Copyright ORBIFLY December 2007 - Disclaimer

ORBIFLY MET'MAP TEAM :

Programming & Development : Alexandra Zaïnal
Concept & Development : Baudouin d'Aumeries
Co-Development & Prog : Marc-Olivier Méhu
Technical & hardware support : Manuel Goepfert

Contact : metmap@orbifly.com




SOURCES & CREDITS :

   NOAA